sensor_id;sensor_type;location;lat;lon;timestamp;P1;durP1;ratioP1;P2;durP2;ratioP2
71777;SDS011;59609;52.430;4.668;2023-04-15T00:00:26;8.15;;;5.18;;
71777;SDS011;59609;52.430;4.668;2023-04-15T00:02:53;9.40;;;5.55;;
71777;SDS011;59609;52.430;4.668;2023-04-15T00:05:19;7.15;;;4.43;;
71777;SDS011;59609;52.430;4.668;2023-04-15T00:07:44;10.80;;;4.97;;
71777;SDS011;59609;52.430;4.668;2023-04-15T00:10:11;9.52;;;5.18;;
71777;SDS011;59609;52.430;4.668;2023-04-15T00:12:36;9.68;;;5.22;;
71777;SDS011;59609;52.430;4.668;2023-04-15T00:15:02;7.05;;;4.88;;
71777;SDS011;59609;52.430;4.668;2023-04-15T00:17:28;10.48;;;5.32;;
71777;SDS011;59609;52.430;4.668;2023-04-15T00:19:53;8.80;;;4.97;;
71777;SDS011;59609;52.430;4.668;2023-04-15T00:22:19;5.85;;;4.68;;
71777;SDS011;59609;52.430;4.668;2023-04-15T00:24:44;8.57;;;4.75;;
71777;SDS011;59609;52.430;4.668;2023-04-15T00:27:10;8.48;;;5.20;;
71777;SDS011;59609;52.430;4.668;2023-04-15T00:29:35;7.88;;;4.85;;
71777;SDS011;59609;52.430;4.668;2023-04-15T00:32:01;13.35;;;6.03;;
71777;SDS011;59609;52.430;4.668;2023-04-15T00:34:26;7.20;;;5.07;;
71777;SDS011;59609;52.430;4.668;2023-04-15T00:36:52;6.47;;;4.78;;
71777;SDS011;59609;52.430;4.668;2023-04-15T00:39:18;11.02;;;5.50;;
71777;SDS011;59609;52.430;4.668;2023-04-15T00:41:43;10.85;;;6.05;;
71777;SDS011;59609;52.430;4.668;2023-04-15T00:44:11;10.30;;;5.35;;
71777;SDS011;59609;52.430;4.668;2023-04-15T00:46:37;8.63;;;5.57;;
71777;SDS011;59609;52.430;4.668;2023-04-15T00:49:04;8.30;;;5.25;;
71777;SDS011;59609;52.430;4.668;2023-04-15T00:51:30;7.93;;;5.30;;
71777;SDS011;59609;52.430;4.668;2023-04-15T00:53:57;10.63;;;5.60;;
71777;SDS011;59609;52.430;4.668;2023-04-15T00:56:27;9.70;;;5.18;;
71777;SDS011;59609;52.430;4.668;2023-04-15T00:58:53;11.65;;;5.60;;
71777;SDS011;59609;52.430;4.668;2023-04-15T01:01:22;7.68;;;5.53;;
71777;SDS011;59609;52.430;4.668;2023-04-15T01:03:49;12.48;;;6.30;;
71777;SDS011;59609;52.430;4.668;2023-04-15T01:06:15;7.97;;;5.03;;
71777;SDS011;59609;52.430;4.668;2023-04-15T01:08:41;7.35;;;4.68;;
71777;SDS011;59609;52.430;4.668;2023-04-15T01:11:07;7.22;;;4.97;;
71777;SDS011;59609;52.430;4.668;2023-04-15T01:13:33;9.75;;;5.28;;
71777;SDS011;59609;52.430;4.668;2023-04-15T01:16:00;11.18;;;5.40;;
71777;SDS011;59609;52.430;4.668;2023-04-15T01:18:27;8.55;;;5.10;;
71777;SDS011;59609;52.430;4.668;2023-04-15T01:20:54;9.38;;;4.60;;
71777;SDS011;59609;52.430;4.668;2023-04-15T01:23:20;10.30;;;5.43;;
71777;SDS011;59609;52.430;4.668;2023-04-15T01:25:47;13.00;;;4.97;;
71777;SDS011;59609;52.430;4.668;2023-04-15T01:28:13;9.88;;;5.45;;
71777;SDS011;59609;52.430;4.668;2023-04-15T01:30:40;7.78;;;4.75;;
71777;SDS011;59609;52.430;4.668;2023-04-15T01:33:05;7.32;;;5.22;;
71777;SDS011;59609;52.430;4.668;2023-04-15T01:35:31;10.20;;;5.25;;
71777;SDS011;59609;52.430;4.668;2023-04-15T01:37:59;10.73;;;4.88;;
71777;SDS011;59609;52.430;4.668;2023-04-15T01:40:36;6.97;;;5.13;;
71777;SDS011;59609;52.430;4.668;2023-04-15T01:43:01;10.20;;;5.00;;
71777;SDS011;59609;52.430;4.668;2023-04-15T01:45:27;8.23;;;5.10;;
71777;SDS011;59609;52.430;4.668;2023-04-15T01:47:53;10.48;;;5.38;;
71777;SDS011;59609;52.430;4.668;2023-04-15T01:50:19;8.30;;;5.05;;
71777;SDS011;59609;52.430;4.668;2023-04-15T01:52:45;9.45;;;5.32;;
71777;SDS011;59609;52.430;4.668;2023-04-15T01:55:13;11.02;;;5.40;;
71777;SDS011;59609;52.430;4.668;2023-04-15T01:57:39;8.10;;;4.90;;
71777;SDS011;59609;52.430;4.668;2023-04-15T02:00:05;9.13;;;5.68;;
71777;SDS011;59609;52.430;4.668;2023-04-15T02:02:34;8.15;;;5.32;;
71777;SDS011;59609;52.430;4.668;2023-04-15T02:04:59;10.65;;;5.88;;
71777;SDS011;59609;52.430;4.668;2023-04-15T02:07:25;8.40;;;5.93;;
71777;SDS011;59609;52.430;4.668;2023-04-15T02:09:52;9.75;;;5.53;;
71777;SDS011;59609;52.430;4.668;2023-04-15T02:12:18;7.28;;;5.43;;
71777;SDS011;59609;52.430;4.668;2023-04-15T02:14:43;10.57;;;5.15;;
71777;SDS011;59609;52.430;4.668;2023-04-15T02:17:09;7.82;;;5.63;;
71777;SDS011;59609;52.430;4.668;2023-04-15T02:19:34;8.65;;;5.47;;
71777;SDS011;59609;52.430;4.668;2023-04-15T02:22:00;11.45;;;5.75;;
71777;SDS011;59609;52.430;4.668;2023-04-15T02:26:54;11.18;;;5.07;;
71777;SDS011;59609;52.430;4.668;2023-04-15T02:29:20;10.85;;;5.63;;
71777;SDS011;59609;52.430;4.668;2023-04-15T02:31:47;12.88;;;5.63;;
71777;SDS011;59609;52.430;4.668;2023-04-15T02:34:12;10.73;;;5.03;;
71777;SDS011;59609;52.430;4.668;2023-04-15T02:36:38;8.45;;;5.25;;
71777;SDS011;59609;52.430;4.668;2023-04-15T02:39:04;7.75;;;4.97;;
71777;SDS011;59609;52.430;4.668;2023-04-15T02:41:30;11.18;;;5.60;;
71777;SDS011;59609;52.430;4.668;2023-04-15T02:43:56;7.22;;;5.15;;
71777;SDS011;59609;52.430;4.668;2023-04-15T02:46:21;9.15;;;5.28;;
71777;SDS011;59609;52.430;4.668;2023-04-15T02:48:47;7.53;;;4.93;;
71777;SDS011;59609;52.430;4.668;2023-04-15T02:51:17;11.75;;;5.47;;
71777;SDS011;59609;52.430;4.668;2023-04-15T02:53:45;11.15;;;5.10;;
71777;SDS011;59609;52.430;4.668;2023-04-15T02:56:12;12.25;;;5.78;;
71777;SDS011;59609;52.430;4.668;2023-04-15T02:58:39;13.00;;;5.32;;
71777;SDS011;59609;52.430;4.668;2023-04-15T03:01:05;9.32;;;5.47;;
71777;SDS011;59609;52.430;4.668;2023-04-15T03:03:32;9.55;;;4.47;;
71777;SDS011;59609;52.430;4.668;2023-04-15T03:05:58;8.50;;;5.32;;
71777;SDS011;59609;52.430;4.668;2023-04-15T03:08:23;11.90;;;5.75;;
71777;SDS011;59609;52.430;4.668;2023-04-15T03:10:49;11.73;;;5.25;;
71777;SDS011;59609;52.430;4.668;2023-04-15T03:13:16;10.07;;;4.65;;
71777;SDS011;59609;52.430;4.668;2023-04-15T03:15:42;9.02;;;5.50;;
71777;SDS011;59609;52.430;4.668;2023-04-15T03:18:07;9.20;;;5.10;;
71777;SDS011;59609;52.430;4.668;2023-04-15T03:20:32;9.77;;;5.75;;
71777;SDS011;59609;52.430;4.668;2023-04-15T03:22:59;8.65;;;4.78;;
71777;SDS011;59609;52.430;4.668;2023-04-15T03:25:25;9.52;;;5.32;;
71777;SDS011;59609;52.430;4.668;2023-04-15T03:27:51;8.32;;;5.03;;
71777;SDS011;59609;52.430;4.668;2023-04-15T03:30:16;10.75;;;5.82;;
71777;SDS011;59609;52.430;4.668;2023-04-15T03:32:42;8.65;;;5.05;;
71777;SDS011;59609;52.430;4.668;2023-04-15T03:35:07;7.60;;;4.88;;
71777;SDS011;59609;52.430;4.668;2023-04-15T03:37:33;7.95;;;5.10;;
71777;SDS011;59609;52.430;4.668;2023-04-15T03:39:59;9.38;;;5.53;;
71777;SDS011;59609;52.430;4.668;2023-04-15T03:42:24;9.55;;;5.38;;
71777;SDS011;59609;52.430;4.668;2023-04-15T03:44:49;8.98;;;5.63;;
71777;SDS011;59609;52.430;4.668;2023-04-15T03:47:16;11.82;;;5.68;;
71777;SDS011;59609;52.430;4.668;2023-04-15T03:49:41;7.70;;;4.90;;
71777;SDS011;59609;52.430;4.668;2023-04-15T03:52:06;9.65;;;5.03;;
71777;SDS011;59609;52.430;4.668;2023-04-15T03:54:32;10.70;;;5.88;;
71777;SDS011;59609;52.430;4.668;2023-04-15T03:56:57;8.48;;;5.35;;
71777;SDS011;59609;52.430;4.668;2023-04-15T03:59:23;11.10;;;5.47;;
71777;SDS011;59609;52.430;4.668;2023-04-15T04:01:48;10.57;;;5.90;;
71777;SDS011;59609;52.430;4.668;2023-04-15T04:04:13;10.52;;;5.80;;
71777;SDS011;59609;52.430;4.668;2023-04-15T04:06:39;10.73;;;5.88;;
71777;SDS011;59609;52.430;4.668;2023-04-15T04:09:05;10.50;;;5.65;;
71777;SDS011;59609;52.430;4.668;2023-04-15T04:11:30;10.77;;;5.97;;
71777;SDS011;59609;52.430;4.668;2023-04-15T04:13:57;8.27;;;5.70;;
71777;SDS011;59609;52.430;4.668;2023-04-15T04:16:22;11.15;;;6.28;;
71777;SDS011;59609;52.430;4.668;2023-04-15T04:18:48;10.68;;;5.45;;
71777;SDS011;59609;52.430;4.668;2023-04-15T04:21:13;10.13;;;6.10;;
71777;SDS011;59609;52.430;4.668;2023-04-15T04:23:38;12.25;;;6.28;;
71777;SDS011;59609;52.430;4.668;2023-04-15T04:26:04;9.32;;;5.88;;
71777;SDS011;59609;52.430;4.668;2023-04-15T04:28:29;17.48;;;7.25;;
71777;SDS011;59609;52.430;4.668;2023-04-15T04:30:55;11.35;;;6.22;;
71777;SDS011;59609;52.430;4.668;2023-04-15T04:33:20;12.88;;;6.60;;
71777;SDS011;59609;52.430;4.668;2023-04-15T04:35:46;13.25;;;6.70;;
71777;SDS011;59609;52.430;4.668;2023-04-15T04:38:11;12.20;;;7.07;;
71777;SDS011;59609;52.430;4.668;2023-04-15T04:40:36;10.68;;;6.85;;
71777;SDS011;59609;52.430;4.668;2023-04-15T04:43:02;14.63;;;7.35;;
71777;SDS011;59609;52.430;4.668;2023-04-15T04:45:27;12.02;;;7.32;;
71777;SDS011;59609;52.430;4.668;2023-04-15T04:47:52;11.35;;;7.30;;
71777;SDS011;59609;52.430;4.668;2023-04-15T04:50:18;14.88;;;7.72;;
71777;SDS011;59609;52.430;4.668;2023-04-15T04:52:43;13.77;;;7.03;;
71777;SDS011;59609;52.430;4.668;2023-04-15T04:55:09;15.88;;;7.75;;
71777;SDS011;59609;52.430;4.668;2023-04-15T04:57:34;13.93;;;7.88;;
71777;SDS011;59609;52.430;4.668;2023-04-15T05:00:01;11.98;;;7.40;;
71777;SDS011;59609;52.430;4.668;2023-04-15T05:02:28;13.30;;;8.07;;
71777;SDS011;59609;52.430;4.668;2023-04-15T05:04:54;14.55;;;8.55;;
71777;SDS011;59609;52.430;4.668;2023-04-15T05:07:20;15.00;;;8.13;;
71777;SDS011;59609;52.430;4.668;2023-04-15T05:09:46;13.35;;;8.52;;
71777;SDS011;59609;52.430;4.668;2023-04-15T05:12:11;14.85;;;7.75;;
71777;SDS011;59609;52.430;4.668;2023-04-15T05:14:39;13.27;;;7.57;;
71777;SDS011;59609;52.430;4.668;2023-04-15T05:17:06;15.10;;;7.65;;
71777;SDS011;59609;52.430;4.668;2023-04-15T05:19:32;11.30;;;7.93;;
71777;SDS011;59609;52.430;4.668;2023-04-15T05:21:57;13.40;;;7.70;;
71777;SDS011;59609;52.430;4.668;2023-04-15T05:24:22;14.23;;;7.70;;
71777;SDS011;59609;52.430;4.668;2023-04-15T05:26:48;13.85;;;7.70;;
71777;SDS011;59609;52.430;4.668;2023-04-15T05:29:13;14.10;;;7.78;;
71777;SDS011;59609;52.430;4.668;2023-04-15T05:31:38;16.33;;;7.85;;
71777;SDS011;59609;52.430;4.668;2023-04-15T05:34:04;12.00;;;7.85;;
71777;SDS011;59609;52.430;4.668;2023-04-15T05:36:31;15.10;;;8.02;;
71777;SDS011;59609;52.430;4.668;2023-04-15T05:38:56;13.27;;;7.55;;
71777;SDS011;59609;52.430;4.668;2023-04-15T05:41:21;13.80;;;7.57;;
71777;SDS011;59609;52.430;4.668;2023-04-15T05:43:47;15.77;;;8.65;;
71777;SDS011;59609;52.430;4.668;2023-04-15T05:46:12;14.77;;;7.50;;
71777;SDS011;59609;52.430;4.668;2023-04-15T05:48:37;16.80;;;7.88;;
71777;SDS011;59609;52.430;4.668;2023-04-15T05:51:03;13.75;;;7.28;;
71777;SDS011;59609;52.430;4.668;2023-04-15T05:53:28;11.57;;;7.50;;
71777;SDS011;59609;52.430;4.668;2023-04-15T05:55:54;14.10;;;8.25;;
71777;SDS011;59609;52.430;4.668;2023-04-15T05:58:19;10.57;;;6.28;;
71777;SDS011;59609;52.430;4.668;2023-04-15T06:00:45;11.73;;;6.75;;
71777;SDS011;59609;52.430;4.668;2023-04-15T06:03:10;11.02;;;7.07;;
71777;SDS011;59609;52.430;4.668;2023-04-15T06:05:35;11.85;;;6.40;;
71777;SDS011;59609;52.430;4.668;2023-04-15T06:08:01;12.90;;;7.43;;
71777;SDS011;59609;52.430;4.668;2023-04-15T06:10:26;15.40;;;7.45;;
71777;SDS011;59609;52.430;4.668;2023-04-15T06:12:52;12.35;;;7.05;;
71777;SDS011;59609;52.430;4.668;2023-04-15T06:15:17;12.27;;;6.88;;
71777;SDS011;59609;52.430;4.668;2023-04-15T06:17:43;12.40;;;6.75;;
71777;SDS011;59609;52.430;4.668;2023-04-15T06:20:09;11.05;;;6.85;;
71777;SDS011;59609;52.430;4.668;2023-04-15T06:22:35;12.10;;;7.70;;
71777;SDS011;59609;52.430;4.668;2023-04-15T06:25:01;12.18;;;6.60;;
71777;SDS011;59609;52.430;4.668;2023-04-15T06:27:27;11.50;;;7.55;;
71777;SDS011;59609;52.430;4.668;2023-04-15T06:29:52;13.38;;;7.57;;
71777;SDS011;59609;52.430;4.668;2023-04-15T06:32:18;11.15;;;6.97;;
71777;SDS011;59609;52.430;4.668;2023-04-15T06:34:43;11.20;;;6.82;;
71777;SDS011;59609;52.430;4.668;2023-04-15T06:37:08;13.73;;;7.57;;
71777;SDS011;59609;52.430;4.668;2023-04-15T06:39:39;10.98;;;6.95;;
71777;SDS011;59609;52.430;4.668;2023-04-15T06:42:05;10.65;;;7.07;;
71777;SDS011;59609;52.430;4.668;2023-04-15T06:44:30;11.23;;;7.90;;
71777;SDS011;59609;52.430;4.668;2023-04-15T06:46:56;12.25;;;7.28;;
71777;SDS011;59609;52.430;4.668;2023-04-15T06:49:21;11.13;;;7.53;;
71777;SDS011;59609;52.430;4.668;2023-04-15T06:51:46;9.68;;;6.68;;
71777;SDS011;59609;52.430;4.668;2023-04-15T06:54:12;9.93;;;6.72;;
71777;SDS011;59609;52.430;4.668;2023-04-15T06:56:37;12.82;;;7.82;;
71777;SDS011;59609;52.430;4.668;2023-04-15T06:59:02;12.88;;;6.55;;
71777;SDS011;59609;52.430;4.668;2023-04-15T07:01:28;10.27;;;5.88;;
71777;SDS011;59609;52.430;4.668;2023-04-15T07:03:53;9.38;;;5.90;;
71777;SDS011;59609;52.430;4.668;2023-04-15T07:06:18;10.88;;;5.78;;
71777;SDS011;59609;52.430;4.668;2023-04-15T07:08:45;11.45;;;6.72;;
71777;SDS011;59609;52.430;4.668;2023-04-15T07:11:11;9.25;;;6.00;;
71777;SDS011;59609;52.430;4.668;2023-04-15T07:13:37;9.70;;;5.65;;
71777;SDS011;59609;52.430;4.668;2023-04-15T07:16:02;10.35;;;5.65;;
71777;SDS011;59609;52.430;4.668;2023-04-15T07:18:28;10.07;;;5.90;;
71777;SDS011;59609;52.430;4.668;2023-04-15T07:20:53;7.35;;;5.38;;
71777;SDS011;59609;52.430;4.668;2023-04-15T07:23:18;7.78;;;4.18;;
71777;SDS011;59609;52.430;4.668;2023-04-15T07:25:44;5.93;;;4.60;;
71777;SDS011;59609;52.430;4.668;2023-04-15T07:28:09;7.30;;;4.65;;
71777;SDS011;59609;52.430;4.668;2023-04-15T07:30:34;6.53;;;4.47;;
71777;SDS011;59609;52.430;4.668;2023-04-15T07:33:00;6.68;;;4.38;;
71777;SDS011;59609;52.430;4.668;2023-04-15T07:35:26;6.68;;;4.60;;
71777;SDS011;59609;52.430;4.668;2023-04-15T07:37:53;6.57;;;4.50;;
71777;SDS011;59609;52.430;4.668;2023-04-15T07:40:18;8.07;;;4.93;;
71777;SDS011;59609;52.430;4.668;2023-04-15T07:42:44;6.93;;;4.53;;
71777;SDS011;59609;52.430;4.668;2023-04-15T07:45:10;7.07;;;4.20;;
71777;SDS011;59609;52.430;4.668;2023-04-15T07:47:36;6.68;;;4.15;;
71777;SDS011;59609;52.430;4.668;2023-04-15T07:50:02;7.32;;;4.05;;
71777;SDS011;59609;52.430;4.668;2023-04-15T07:52:27;6.47;;;4.47;;
71777;SDS011;59609;52.430;4.668;2023-04-15T07:54:53;7.38;;;4.22;;
71777;SDS011;59609;52.430;4.668;2023-04-15T07:57:18;7.55;;;5.07;;
71777;SDS011;59609;52.430;4.668;2023-04-15T07:59:44;7.18;;;4.75;;
71777;SDS011;59609;52.430;4.668;2023-04-15T08:02:10;6.25;;;4.15;;
71777;SDS011;59609;52.430;4.668;2023-04-15T08:04:35;5.88;;;4.53;;
71777;SDS011;59609;52.430;4.668;2023-04-15T08:07:01;4.82;;;4.05;;
71777;SDS011;59609;52.430;4.668;2023-04-15T08:09:27;5.68;;;3.88;;
71777;SDS011;59609;52.430;4.668;2023-04-15T08:11:53;7.70;;;3.70;;
71777;SDS011;59609;52.430;4.668;2023-04-15T08:14:18;6.97;;;4.57;;
71777;SDS011;59609;52.430;4.668;2023-04-15T08:16:43;6.18;;;3.30;;
71777;SDS011;59609;52.430;4.668;2023-04-15T08:19:09;5.97;;;4.63;;
71777;SDS011;59609;52.430;4.668;2023-04-15T08:21:40;6.22;;;3.88;;
71777;SDS011;59609;52.430;4.668;2023-04-15T08:24:05;6.03;;;3.90;;
71777;SDS011;59609;52.430;4.668;2023-04-15T08:26:32;5.82;;;4.28;;
71777;SDS011;59609;52.430;4.668;2023-04-15T08:28:57;7.18;;;4.78;;
71777;SDS011;59609;52.430;4.668;2023-04-15T08:31:22;7.15;;;4.43;;
71777;SDS011;59609;52.430;4.668;2023-04-15T08:33:50;13.68;;;4.70;;
71777;SDS011;59609;52.430;4.668;2023-04-15T08:36:16;8.07;;;4.40;;
71777;SDS011;59609;52.430;4.668;2023-04-15T08:38:43;7.60;;;4.68;;
71777;SDS011;59609;52.430;4.668;2023-04-15T08:41:32;5.88;;;4.13;;
71777;SDS011;59609;52.430;4.668;2023-04-15T08:44:04;6.82;;;4.43;;
71777;SDS011;59609;52.430;4.668;2023-04-15T08:46:30;8.65;;;4.78;;
71777;SDS011;59609;52.430;4.668;2023-04-15T08:48:58;8.10;;;4.25;;
71777;SDS011;59609;52.430;4.668;2023-04-15T08:51:27;6.65;;;4.22;;
71777;SDS011;59609;52.430;4.668;2023-04-15T08:53:53;6.97;;;5.18;;
71777;SDS011;59609;52.430;4.668;2023-04-15T08:56:18;5.78;;;4.53;;
71777;SDS011;59609;52.430;4.668;2023-04-15T08:58:49;5.68;;;4.15;;
71777;SDS011;59609;52.430;4.668;2023-04-15T09:01:14;4.00;;;3.35;;
71777;SDS011;59609;52.430;4.668;2023-04-15T09:03:41;4.68;;;3.35;;
71777;SDS011;59609;52.430;4.668;2023-04-15T09:06:06;8.65;;;3.60;;
71777;SDS011;59609;52.430;4.668;2023-04-15T09:08:32;3.88;;;3.55;;
71777;SDS011;59609;52.430;4.668;2023-04-15T09:13:27;4.90;;;2.33;;
71777;SDS011;59609;52.430;4.668;2023-04-15T09:15:53;4.68;;;3.42;;
71777;SDS011;59609;52.430;4.668;2023-04-15T09:18:35;4.13;;;3.10;;
71777;SDS011;59609;52.430;4.668;2023-04-15T09:21:03;5.28;;;2.72;;
71777;SDS011;59609;52.430;4.668;2023-04-15T09:23:31;5.10;;;3.92;;
71777;SDS011;59609;52.430;4.668;2023-04-15T09:25:56;3.80;;;2.97;;
71777;SDS011;59609;52.430;4.668;2023-04-15T09:28:22;5.93;;;2.22;;
71777;SDS011;59609;52.430;4.668;2023-04-15T09:30:50;4.13;;;3.10;;
71777;SDS011;59609;52.430;4.668;2023-04-15T09:33:26;4.63;;;2.38;;
71777;SDS011;59609;52.430;4.668;2023-04-15T09:36:00;3.28;;;2.83;;
71777;SDS011;59609;52.430;4.668;2023-04-15T09:38:29;3.72;;;3.08;;
71777;SDS011;59609;52.430;4.668;2023-04-15T09:40:56;3.78;;;3.13;;
71777;SDS011;59609;52.430;4.668;2023-04-15T09:43:37;4.25;;;3.45;;
71777;SDS011;59609;52.430;4.668;2023-04-15T09:46:04;5.78;;;3.35;;
71777;SDS011;59609;52.430;4.668;2023-04-15T09:48:30;5.55;;;2.67;;
71777;SDS011;59609;52.430;4.668;2023-04-15T09:50:58;6.15;;;3.20;;
71777;SDS011;59609;52.430;4.668;2023-04-15T09:53:25;4.20;;;3.30;;
71777;SDS011;59609;52.430;4.668;2023-04-15T09:55:55;4.82;;;3.38;;
71777;SDS011;59609;52.430;4.668;2023-04-15T10:00:50;6.60;;;3.50;;
71777;SDS011;59609;52.430;4.668;2023-04-15T10:03:18;3.70;;;2.60;;
71777;SDS011;59609;52.430;4.668;2023-04-15T10:05:48;5.45;;;4.32;;
71777;SDS011;59609;52.430;4.668;2023-04-15T10:08:18;4.85;;;3.70;;
71777;SDS011;59609;52.430;4.668;2023-04-15T10:13:16;3.92;;;3.58;;
71777;SDS011;59609;52.430;4.668;2023-04-15T10:15:43;3.67;;;3.38;;
71777;SDS011;59609;52.430;4.668;2023-04-15T10:18:15;5.55;;;2.85;;
71777;SDS011;59609;52.430;4.668;2023-04-15T10:20:43;4.72;;;3.47;;
71777;SDS011;59609;52.430;4.668;2023-04-15T10:23:09;4.43;;;2.97;;
71777;SDS011;59609;52.430;4.668;2023-04-15T10:35:27;4.60;;;3.33;;
71777;SDS011;59609;52.430;4.668;2023-04-15T10:37:54;5.32;;;3.45;;
71777;SDS011;59609;52.430;4.668;2023-04-15T10:42:51;6.65;;;3.78;;
71777;SDS011;59609;52.430;4.668;2023-04-15T10:45:18;4.40;;;3.13;;
71777;SDS011;59609;52.430;4.668;2023-04-15T10:47:43;5.63;;;3.35;;
71777;SDS011;59609;52.430;4.668;2023-04-15T10:50:09;6.13;;;3.05;;
71777;SDS011;59609;52.430;4.668;2023-04-15T10:57:43;5.15;;;3.58;;
71777;SDS011;59609;52.430;4.668;2023-04-15T11:00:10;4.53;;;3.20;;
71777;SDS011;59609;52.430;4.668;2023-04-15T11:02:44;2.95;;;2.33;;
71777;SDS011;59609;52.430;4.668;2023-04-15T11:05:10;4.75;;;2.75;;
71777;SDS011;59609;52.430;4.668;2023-04-15T11:07:37;4.50;;;2.60;;
71777;SDS011;59609;52.430;4.668;2023-04-15T11:12:37;2.73;;;2.37;;
71777;SDS011;59609;52.430;4.668;2023-04-15T11:18:18;3.72;;;2.53;;
71777;SDS011;59609;52.430;4.668;2023-04-15T11:20:47;2.70;;;1.98;;
71777;SDS011;59609;52.430;4.668;2023-04-15T11:25:41;2.95;;;1.90;;
71777;SDS011;59609;52.430;4.668;2023-04-15T11:28:07;2.28;;;1.90;;
71777;SDS011;59609;52.430;4.668;2023-04-15T11:30:33;2.60;;;2.10;;
71777;SDS011;59609;52.430;4.668;2023-04-15T11:33:01;2.55;;;2.22;;
71777;SDS011;59609;52.430;4.668;2023-04-15T11:35:31;3.55;;;1.90;;
71777;SDS011;59609;52.430;4.668;2023-04-15T11:37:58;2.10;;;2.00;;
71777;SDS011;59609;52.430;4.668;2023-04-15T11:40:28;2.28;;;2.13;;
71777;SDS011;59609;52.430;4.668;2023-04-15T11:43:08;3.63;;;2.53;;
71777;SDS011;59609;52.430;4.668;2023-04-15T11:45:35;3.28;;;3.00;;
71777;SDS011;59609;52.430;4.668;2023-04-15T11:48:09;2.80;;;2.30;;
71777;SDS011;59609;52.430;4.668;2023-04-15T11:50:36;5.38;;;1.83;;
71777;SDS011;59609;52.430;4.668;2023-04-15T11:53:04;3.42;;;2.28;;
71777;SDS011;59609;52.430;4.668;2023-04-15T11:55:31;2.50;;;2.17;;
71777;SDS011;59609;52.430;4.668;2023-04-15T11:58:07;5.47;;;2.47;;
71777;SDS011;59609;52.430;4.668;2023-04-15T12:00:34;2.67;;;2.17;;
71777;SDS011;59609;52.430;4.668;2023-04-15T12:11:50;3.90;;;2.20;;
71777;SDS011;59609;52.430;4.668;2023-04-15T12:14:28;3.42;;;2.53;;
71777;SDS011;59609;52.430;4.668;2023-04-15T12:16:57;3.53;;;1.80;;
71777;SDS011;59609;52.430;4.668;2023-04-15T12:19:27;3.67;;;2.40;;
71777;SDS011;59609;52.430;4.668;2023-04-15T12:21:58;3.83;;;1.67;;
71777;SDS011;59609;52.430;4.668;2023-04-15T12:24:25;2.25;;;2.15;;
71777;SDS011;59609;52.430;4.668;2023-04-15T12:26:51;2.55;;;1.90;;
71777;SDS011;59609;52.430;4.668;2023-04-15T12:29:28;2.90;;;2.03;;
71777;SDS011;59609;52.430;4.668;2023-04-15T12:31:58;3.03;;;1.60;;
71777;SDS011;59609;52.430;4.668;2023-04-15T12:34:32;2.63;;;2.42;;
71777;SDS011;59609;52.430;4.668;2023-04-15T12:37:00;2.90;;;2.58;;
71777;SDS011;59609;52.430;4.668;2023-04-15T12:39:33;3.30;;;1.95;;
71777;SDS011;59609;52.430;4.668;2023-04-15T12:42:00;3.35;;;2.53;;
71777;SDS011;59609;52.430;4.668;2023-04-15T12:44:25;3.63;;;2.67;;
71777;SDS011;59609;52.430;4.668;2023-04-15T12:46:52;2.92;;;1.45;;
71777;SDS011;59609;52.430;4.668;2023-04-15T12:49:18;2.58;;;2.10;;
71777;SDS011;59609;52.430;4.668;2023-04-15T12:51:45;2.42;;;2.28;;
71777;SDS011;59609;52.430;4.668;2023-04-15T12:54:15;6.53;;;2.33;;
71777;SDS011;59609;52.430;4.668;2023-04-15T12:56:41;2.70;;;1.48;;
71777;SDS011;59609;52.430;4.668;2023-04-15T12:59:06;3.15;;;1.98;;
71777;SDS011;59609;52.430;4.668;2023-04-15T13:01:32;2.97;;;2.13;;
71777;SDS011;59609;52.430;4.668;2023-04-15T13:03:57;2.47;;;2.08;;
71777;SDS011;59609;52.430;4.668;2023-04-15T13:06:23;2.13;;;1.85;;
71777;SDS011;59609;52.430;4.668;2023-04-15T13:08:48;4.20;;;1.98;;
71777;SDS011;59609;52.430;4.668;2023-04-15T13:11:14;2.38;;;1.90;;
71777;SDS011;59609;52.430;4.668;2023-04-15T13:13:41;2.70;;;1.83;;
71777;SDS011;59609;52.430;4.668;2023-04-15T13:16:06;2.53;;;2.05;;
71777;SDS011;59609;52.430;4.668;2023-04-15T13:18:32;3.95;;;1.92;;
71777;SDS011;59609;52.430;4.668;2023-04-15T13:20:58;4.43;;;2.38;;
71777;SDS011;59609;52.430;4.668;2023-04-15T13:23:24;4.57;;;1.92;;
71777;SDS011;59609;52.430;4.668;2023-04-15T13:25:49;4.53;;;1.95;;
71777;SDS011;59609;52.430;4.668;2023-04-15T13:28:15;5.15;;;2.22;;
71777;SDS011;59609;52.430;4.668;2023-04-15T13:30:40;2.85;;;1.50;;
71777;SDS011;59609;52.430;4.668;2023-04-15T13:33:06;3.05;;;2.15;;
71777;SDS011;59609;52.430;4.668;2023-04-15T13:35:32;1.73;;;1.55;;
71777;SDS011;59609;52.430;4.668;2023-04-15T13:37:57;4.20;;;1.90;;
71777;SDS011;59609;52.430;4.668;2023-04-15T13:40:23;3.33;;;2.00;;
71777;SDS011;59609;52.430;4.668;2023-04-15T13:42:49;7.65;;;3.10;;
71777;SDS011;59609;52.430;4.668;2023-04-15T13:45:17;3.72;;;2.17;;
71777;SDS011;59609;52.430;4.668;2023-04-15T13:47:42;6.90;;;2.47;;
71777;SDS011;59609;52.430;4.668;2023-04-15T13:50:08;3.63;;;2.17;;
71777;SDS011;59609;52.430;4.668;2023-04-15T13:52:34;3.88;;;2.15;;
71777;SDS011;59609;52.430;4.668;2023-04-15T13:54:59;3.53;;;1.80;;
71777;SDS011;59609;52.430;4.668;2023-04-15T13:57:24;4.45;;;1.95;;
71777;SDS011;59609;52.430;4.668;2023-04-15T13:59:50;2.75;;;2.08;;
71777;SDS011;59609;52.430;4.668;2023-04-15T14:02:15;4.43;;;1.95;;
71777;SDS011;59609;52.430;4.668;2023-04-15T14:04:41;3.13;;;2.20;;
71777;SDS011;59609;52.430;4.668;2023-04-15T14:07:06;2.45;;;1.98;;
71777;SDS011;59609;52.430;4.668;2023-04-15T14:09:31;4.70;;;2.05;;
71777;SDS011;59609;52.430;4.668;2023-04-15T14:11:57;3.58;;;2.03;;
71777;SDS011;59609;52.430;4.668;2023-04-15T14:14:23;3.05;;;2.05;;
71777;SDS011;59609;52.430;4.668;2023-04-15T14:16:49;3.70;;;1.90;;
71777;SDS011;59609;52.430;4.668;2023-04-15T14:19:14;2.60;;;2.00;;
71777;SDS011;59609;52.430;4.668;2023-04-15T14:21:40;2.60;;;2.40;;
71777;SDS011;59609;52.430;4.668;2023-04-15T14:24:05;3.75;;;2.00;;
71777;SDS011;59609;52.430;4.668;2023-04-15T14:26:31;3.67;;;2.10;;
71777;SDS011;59609;52.430;4.668;2023-04-15T14:28:56;4.55;;;2.10;;
71777;SDS011;59609;52.430;4.668;2023-04-15T14:31:21;3.63;;;2.40;;
71777;SDS011;59609;52.430;4.668;2023-04-15T14:33:47;3.88;;;2.00;;
71777;SDS011;59609;52.430;4.668;2023-04-15T14:36:12;3.72;;;2.83;;
71777;SDS011;59609;52.430;4.668;2023-04-15T14:38:37;3.45;;;2.63;;
71777;SDS011;59609;52.430;4.668;2023-04-15T14:41:07;9.55;;;3.25;;
71777;SDS011;59609;52.430;4.668;2023-04-15T14:43:33;3.65;;;2.60;;
71777;SDS011;59609;52.430;4.668;2023-04-15T14:45:59;4.03;;;2.42;;
71777;SDS011;59609;52.430;4.668;2023-04-15T14:48:24;5.10;;;2.40;;
71777;SDS011;59609;52.430;4.668;2023-04-15T14:50:50;3.60;;;2.00;;
71777;SDS011;59609;52.430;4.668;2023-04-15T14:53:16;4.22;;;1.38;;
71777;SDS011;59609;52.430;4.668;2023-04-15T14:55:42;4.20;;;2.22;;
71777;SDS011;59609;52.430;4.668;2023-04-15T14:58:07;2.65;;;1.83;;
71777;SDS011;59609;52.430;4.668;2023-04-15T15:00:33;5.80;;;1.95;;
71777;SDS011;59609;52.430;4.668;2023-04-15T15:02:59;2.95;;;1.77;;
71777;SDS011;59609;52.430;4.668;2023-04-15T15:05:25;4.95;;;1.92;;
71777;SDS011;59609;52.430;4.668;2023-04-15T15:07:51;3.13;;;1.83;;
71777;SDS011;59609;52.430;4.668;2023-04-15T15:10:16;3.42;;;2.05;;
71777;SDS011;59609;52.430;4.668;2023-04-15T15:12:42;5.35;;;2.28;;
71777;SDS011;59609;52.430;4.668;2023-04-15T15:15:07;5.07;;;2.05;;
71777;SDS011;59609;52.430;4.668;2023-04-15T15:17:34;6.53;;;2.05;;
71777;SDS011;59609;52.430;4.668;2023-04-15T15:19:59;7.25;;;2.05;;
71777;SDS011;59609;52.430;4.668;2023-04-15T15:22:25;4.90;;;2.35;;